PPNOB SBCF-SBRJ
Flight info
| Callsign | PPNOB |
|---|---|
| Flight time | 0h 37m |
| Altitude | 260 |
| Route | MAVGU UZ3 TOKIM |
| Aircraft | B737/M-SDE2E3FGRY/S |
Departure
| Time | 2026-05-07 22:25 |
|---|---|
| Airport | Tancredo Neves International Airport (SBCF) |
Arrival
| Time | 2026-05-07 23:02 |
|---|---|
| Airport | Santos Dumont Airport (SBRJ) |
| Time | Latitude | Longitude | Altitude | Speed | Heading |
|---|---|---|---|---|---|
| 2026-05-07 22:21 | -19.62527 | -43.97652 | 2720 ft | 0 kts | 139° |
| 2026-05-07 22:24 | -19.62623 | -43.97564 | 2719 ft | 65 kts | 139° |
| 2026-05-07 22:25 | -19.63241 | -43.96993 | 2825 ft | 159 kts | 136° |
| 2026-05-07 22:25 | -19.64168 | -43.96140 | 3803 ft | 190 kts | 141° |
| 2026-05-07 22:25 | -19.65478 | -43.95607 | 4968 ft | 212 kts | 161° |
| 2026-05-07 22:25 | -19.66750 | -43.94828 | 6105 ft | 215 kts | 139° |
| 2026-05-07 22:26 | -19.68166 | -43.94213 | 7208 ft | 233 kts | 176° |
| 2026-05-07 22:26 | -19.69831 | -43.94400 | 8385 ft | 248 kts | 186° |
| 2026-05-07 22:26 | -19.71598 | -43.94615 | 9544 ft | 265 kts | 185° |
| 2026-05-07 22:26 | -19.73549 | -43.94831 | 10306 ft | 296 kts | 185° |
| 2026-05-07 22:27 | -19.75689 | -43.95067 | 11196 ft | 318 kts | 185° |
| 2026-05-07 22:27 | -19.77903 | -43.95315 | 12568 ft | 321 kts | 185° |
| 2026-05-07 22:27 | -19.80146 | -43.95569 | 13903 ft | 327 kts | 185° |
| 2026-05-07 22:27 | -19.82406 | -43.95827 | 15004 ft | 333 kts | 186° |
| 2026-05-07 22:28 | -19.84722 | -43.96094 | 16177 ft | 336 kts | 185° |
| 2026-05-07 22:28 | -19.87062 | -43.96364 | 17292 ft | 341 kts | 185° |
| 2026-05-07 22:28 | -19.89442 | -43.96639 | 18392 ft | 345 kts | 185° |
| 2026-05-07 22:28 | -19.91838 | -43.96917 | 19394 ft | 346 kts | 186° |
| 2026-05-07 22:29 | -19.94239 | -43.97197 | 20362 ft | 348 kts | 186° |
| 2026-05-07 22:29 | -19.96670 | -43.97480 | 21222 ft | 353 kts | 186° |
| 2026-05-07 22:29 | -19.99136 | -43.97767 | 22092 ft | 357 kts | 186° |
| 2026-05-07 22:29 | -20.01612 | -43.98055 | 23000 ft | 360 kts | 186° |
| 2026-05-07 22:30 | -20.04080 | -43.98343 | 23814 ft | 363 kts | 186° |
| 2026-05-07 22:30 | -20.06595 | -43.98636 | 24516 ft | 365 kts | 186° |
| 2026-05-07 22:30 | -20.09186 | -43.98938 | 24982 ft | 378 kts | 186° |
| 2026-05-07 22:30 | -20.11829 | -43.99246 | 25204 ft | 396 kts | 186° |
| 2026-05-07 22:31 | -20.13711 | -43.99466 | 25364 ft | 407 kts | 186° |
| 2026-05-07 22:31 | -20.17534 | -43.99913 | 25673 ft | 426 kts | 187° |
| 2026-05-07 22:31 | -20.20504 | -44.00259 | 25892 ft | 434 kts | 187° |
| 2026-05-07 22:31 | -20.22504 | -44.00493 | 26023 ft | 439 kts | 187° |
| 2026-05-07 22:32 | -20.25605 | -44.00855 | 26092 ft | 446 kts | 187° |
| 2026-05-07 22:32 | -20.28673 | -44.01213 | 26095 ft | 453 kts | 187° |
| 2026-05-07 22:32 | -20.31860 | -44.01585 | 26103 ft | 458 kts | 187° |
| 2026-05-07 22:32 | -20.34999 | -44.01952 | 26105 ft | 462 kts | 187° |
| 2026-05-07 22:33 | -20.38214 | -44.02328 | 26105 ft | 466 kts | 187° |
| 2026-05-07 22:33 | -20.41452 | -44.02707 | 26097 ft | 469 kts | 187° |
| 2026-05-07 22:33 | -20.44709 | -44.03088 | 26097 ft | 471 kts | 187° |
| 2026-05-07 22:33 | -20.47959 | -44.03468 | 26095 ft | 470 kts | 187° |
| 2026-05-07 22:34 | -20.51217 | -44.03849 | 26099 ft | 470 kts | 187° |
| 2026-05-07 22:34 | -20.54466 | -44.04230 | 26097 ft | 470 kts | 187° |
| 2026-05-07 22:34 | -20.57724 | -44.04612 | 26101 ft | 470 kts | 187° |
| 2026-05-07 22:34 | -20.60972 | -44.04993 | 26097 ft | 470 kts | 187° |
| 2026-05-07 22:35 | -20.64231 | -44.05376 | 26101 ft | 470 kts | 187° |
| 2026-05-07 22:35 | -20.67478 | -44.05757 | 26101 ft | 470 kts | 187° |
| 2026-05-07 22:35 | -20.70738 | -44.06140 | 26101 ft | 470 kts | 187° |
| 2026-05-07 22:35 | -20.73983 | -44.06521 | 26095 ft | 470 kts | 187° |
| 2026-05-07 22:36 | -20.77241 | -44.06904 | 26105 ft | 470 kts | 187° |
| 2026-05-07 22:36 | -20.80488 | -44.07286 | 26108 ft | 470 kts | 187° |
| 2026-05-07 22:36 | -20.83737 | -44.07668 | 26100 ft | 470 kts | 187° |
| 2026-05-07 22:36 | -20.86957 | -44.08047 | 26105 ft | 470 kts | 187° |
| 2026-05-07 22:37 | -20.90206 | -44.08430 | 26103 ft | 470 kts | 187° |
| 2026-05-07 22:37 | -20.93457 | -44.08813 | 26101 ft | 470 kts | 187° |
| 2026-05-07 22:37 | -20.96717 | -44.09197 | 26106 ft | 470 kts | 187° |
| 2026-05-07 22:37 | -20.99962 | -44.09580 | 26106 ft | 471 kts | 187° |
| 2026-05-07 22:38 | -21.03221 | -44.09964 | 26102 ft | 471 kts | 187° |
| 2026-05-07 22:38 | -21.06491 | -44.10350 | 26104 ft | 471 kts | 187° |
| 2026-05-07 22:38 | -21.09752 | -44.10735 | 26103 ft | 471 kts | 187° |
| 2026-05-07 22:38 | -21.13007 | -44.11120 | 26106 ft | 471 kts | 187° |
| 2026-05-07 22:39 | -21.16265 | -44.11505 | 26096 ft | 472 kts | 187° |
| 2026-05-07 22:39 | -21.19527 | -44.11890 | 26104 ft | 472 kts | 187° |
| 2026-05-07 22:39 | -21.22790 | -44.12276 | 26099 ft | 472 kts | 187° |
| 2026-05-07 22:39 | -21.26039 | -44.12661 | 26102 ft | 472 kts | 187° |
| 2026-05-07 22:40 | -21.29302 | -44.13047 | 26106 ft | 472 kts | 187° |
| 2026-05-07 22:40 | -21.32568 | -44.13434 | 26107 ft | 472 kts | 187° |
| 2026-05-07 22:40 | -21.35838 | -44.13821 | 26099 ft | 472 kts | 187° |
| 2026-05-07 22:40 | -21.39108 | -44.14209 | 26102 ft | 472 kts | 187° |
| 2026-05-07 22:41 | -21.42373 | -44.14596 | 26101 ft | 473 kts | 187° |
| 2026-05-07 22:41 | -21.45643 | -44.14984 | 26103 ft | 473 kts | 187° |
| 2026-05-07 22:41 | -21.48924 | -44.15332 | 26100 ft | 473 kts | 186° |
| 2026-05-07 22:41 | -21.52207 | -44.15633 | 26102 ft | 473 kts | 185° |
| 2026-05-07 22:42 | -21.55487 | -44.15916 | 26105 ft | 473 kts | 185° |
| 2026-05-07 22:42 | -21.58732 | -44.16195 | 26103 ft | 473 kts | 185° |
| 2026-05-07 22:42 | -21.62021 | -44.16484 | 26105 ft | 473 kts | 186° |
| 2026-05-07 22:42 | -21.65300 | -44.16777 | 26099 ft | 473 kts | 186° |
| 2026-05-07 22:43 | -21.68575 | -44.17075 | 26103 ft | 473 kts | 186° |
| 2026-05-07 22:43 | -21.71868 | -44.17377 | 26105 ft | 473 kts | 186° |
| 2026-05-07 22:43 | -21.75146 | -44.17678 | 26101 ft | 473 kts | 186° |
| 2026-05-07 22:43 | -21.78435 | -44.17980 | 26100 ft | 473 kts | 186° |
| 2026-05-07 22:44 | -21.81714 | -44.18281 | 26108 ft | 473 kts | 186° |
| 2026-05-07 22:44 | -21.85002 | -44.18583 | 26099 ft | 474 kts | 186° |
| 2026-05-07 22:44 | -21.88283 | -44.18884 | 26101 ft | 472 kts | 186° |
| 2026-05-07 22:44 | -21.91497 | -44.19051 | 25704 ft | 455 kts | 178° |
| 2026-05-07 22:45 | -21.94590 | -44.18431 | 24836 ft | 452 kts | 162° |
| 2026-05-07 22:45 | -21.97493 | -44.17157 | 23965 ft | 449 kts | 158° |
| 2026-05-07 22:45 | -22.00352 | -44.15822 | 22975 ft | 446 kts | 157° |
| 2026-05-07 22:45 | -22.03159 | -44.14507 | 21984 ft | 443 kts | 157° |
| 2026-05-07 22:46 | -22.05964 | -44.13207 | 21239 ft | 434 kts | 157° |
| 2026-05-07 22:46 | -22.08724 | -44.11941 | 20514 ft | 427 kts | 157° |
| 2026-05-07 22:46 | -22.11432 | -44.10710 | 19804 ft | 420 kts | 157° |
| 2026-05-07 22:46 | -22.14102 | -44.09502 | 19176 ft | 412 kts | 157° |
| 2026-05-07 22:47 | -22.16721 | -44.08319 | 18590 ft | 404 kts | 157° |
| 2026-05-07 22:47 | -22.19293 | -44.07157 | 17941 ft | 397 kts | 157° |
| 2026-05-07 22:47 | -22.21826 | -44.06013 | 17287 ft | 391 kts | 157° |
| 2026-05-07 22:47 | -22.24319 | -44.04885 | 16631 ft | 386 kts | 157° |
| 2026-05-07 22:48 | -22.26780 | -44.03772 | 16069 ft | 380 kts | 157° |
| 2026-05-07 22:48 | -22.29198 | -44.02678 | 15587 ft | 372 kts | 156° |
| 2026-05-07 22:48 | -22.31551 | -44.01612 | 15180 ft | 364 kts | 156° |
| 2026-05-07 22:48 | -22.33867 | -44.00563 | 14758 ft | 357 kts | 156° |
| 2026-05-07 22:49 | -22.36139 | -43.99533 | 14340 ft | 351 kts | 156° |
| 2026-05-07 22:49 | -22.38379 | -43.98516 | 13930 ft | 346 kts | 156° |
| 2026-05-07 22:49 | -22.40585 | -43.97516 | 13484 ft | 342 kts | 156° |
| 2026-05-07 22:49 | -22.42772 | -43.96524 | 13022 ft | 339 kts | 156° |
| 2026-05-07 22:50 | -22.44906 | -43.95556 | 12559 ft | 335 kts | 156° |
| 2026-05-07 22:50 | -22.47045 | -43.94584 | 12128 ft | 332 kts | 156° |
| 2026-05-07 22:50 | -22.49161 | -43.93623 | 11687 ft | 329 kts | 156° |
| 2026-05-07 22:50 | -22.51258 | -43.92670 | 11285 ft | 325 kts | 156° |
| 2026-05-07 22:51 | -22.53329 | -43.91729 | 10929 ft | 321 kts | 156° |
| 2026-05-07 22:51 | -22.55377 | -43.90798 | 10574 ft | 317 kts | 156° |
| 2026-05-07 22:51 | -22.57406 | -43.89876 | 10232 ft | 314 kts | 156° |
| 2026-05-07 22:51 | -22.59412 | -43.88962 | 9878 ft | 311 kts | 156° |
| 2026-05-07 22:52 | -22.61392 | -43.88047 | 9482 ft | 308 kts | 153° |
| 2026-05-07 22:52 | -22.62991 | -43.86574 | 9086 ft | 303 kts | 123° |
| 2026-05-07 22:52 | -22.64017 | -43.84601 | 8739 ft | 300 kts | 117° |
| 2026-05-07 22:52 | -22.65077 | -43.82417 | 8393 ft | 355 kts | 117° |
| 2026-05-07 22:53 | -22.66268 | -43.79963 | 8149 ft | 366 kts | 117° |
| 2026-05-07 22:53 | -22.67445 | -43.77559 | 7931 ft | 358 kts | 117° |
| 2026-05-07 22:53 | -22.68608 | -43.75193 | 7700 ft | 353 kts | 117° |
| 2026-05-07 22:53 | -22.69769 | -43.72840 | 7461 ft | 357 kts | 117° |
| 2026-05-07 22:54 | -22.70953 | -43.70450 | 7232 ft | 364 kts | 117° |
| 2026-05-07 22:54 | -22.72157 | -43.68018 | 7018 ft | 368 kts | 117° |
| 2026-05-07 22:54 | -22.73373 | -43.65562 | 6799 ft | 371 kts | 117° |
| 2026-05-07 22:54 | -22.74596 | -43.63094 | 6609 ft | 373 kts | 117° |
| 2026-05-07 22:55 | -22.75827 | -43.60612 | 6381 ft | 375 kts | 117° |
| 2026-05-07 22:55 | -22.77033 | -43.58178 | 6149 ft | 357 kts | 117° |
| 2026-05-07 22:55 | -22.77972 | -43.55850 | 6032 ft | 335 kts | 106° |
| 2026-05-07 22:55 | -22.78574 | -43.53496 | 6012 ft | 314 kts | 104° |
| 2026-05-07 22:56 | -22.79116 | -43.51303 | 5968 ft | 296 kts | 104° |
| 2026-05-07 22:56 | -22.79643 | -43.49184 | 5698 ft | 289 kts | 104° |
| 2026-05-07 22:56 | -22.80162 | -43.47125 | 5368 ft | 277 kts | 104° |
| 2026-05-07 22:56 | -22.80671 | -43.45125 | 5054 ft | 273 kts | 104° |
| 2026-05-07 22:57 | -22.81168 | -43.43182 | 4792 ft | 262 kts | 104° |
| 2026-05-07 22:57 | -22.81649 | -43.41309 | 4450 ft | 253 kts | 104° |
| 2026-05-07 22:57 | -22.82115 | -43.39499 | 4121 ft | 245 kts | 104° |
| 2026-05-07 22:57 | -22.82567 | -43.37747 | 3808 ft | 238 kts | 104° |
| 2026-05-07 22:58 | -22.83003 | -43.36053 | 3557 ft | 229 kts | 104° |
| 2026-05-07 22:58 | -22.83417 | -43.34449 | 3321 ft | 220 kts | 104° |
| 2026-05-07 22:58 | -22.83826 | -43.32864 | 3126 ft | 211 kts | 104° |
| 2026-05-07 22:58 | -22.84213 | -43.31361 | 2920 ft | 204 kts | 104° |
| 2026-05-07 22:59 | -22.84589 | -43.29903 | 2707 ft | 198 kts | 104° |
| 2026-05-07 22:59 | -22.84950 | -43.28504 | 2522 ft | 193 kts | 104° |
| 2026-05-07 22:59 | -22.85308 | -43.27111 | 2329 ft | 189 kts | 104° |
| 2026-05-07 22:59 | -22.85586 | -43.25743 | 2146 ft | 183 kts | 97° |
| 2026-05-07 23:00 | -22.85774 | -43.24390 | 1953 ft | 180 kts | 97° |
| 2026-05-07 23:00 | -22.85955 | -43.23060 | 1782 ft | 176 kts | 97° |
| 2026-05-07 23:00 | -22.86132 | -43.21786 | 1558 ft | 166 kts | 97° |
| 2026-05-07 23:00 | -22.86303 | -43.20579 | 1285 ft | 156 kts | 99° |
| 2026-05-07 23:01 | -22.86563 | -43.19491 | 1088 ft | 139 kts | 109° |
| 2026-05-07 23:01 | -22.86961 | -43.18589 | 946 ft | 135 kts | 118° |
| 2026-05-07 23:01 | -22.87492 | -43.17753 | 837 ft | 134 kts | 127° |
| 2026-05-07 23:01 | -22.88107 | -43.17001 | 691 ft | 132 kts | 135° |
| 2026-05-07 23:02 | -22.88855 | -43.16432 | 433 ft | 133 kts | 165° |
| 2026-05-07 23:02 | -22.89751 | -43.16351 | 218 ft | 128 kts | 175° |
| 2026-05-07 23:02 | -22.90612 | -43.16309 | 33 ft | 120 kts | 175° |
| 2026-05-07 23:02 | -22.91277 | -43.16268 | 16 ft | 38 kts | 176° |
| 2026-05-07 23:03 | -22.91496 | -43.16260 | 16 ft | 9 kts | 201° |
| 2026-05-07 23:03 | -22.91527 | -43.16342 | 17 ft | 16 kts | 270° |
| 2026-05-07 23:03 | -22.91468 | -43.16438 | 19 ft | 15 kts | 316° |
| 2026-05-07 23:03 | -22.91384 | -43.16501 | 20 ft | 15 kts | 348° |
| 2026-05-07 23:04 | -22.91275 | -43.16509 | 18 ft | 17 kts | 357° |
| 2026-05-07 23:04 | -22.91154 | -43.16517 | 19 ft | 18 kts | 355° |
| 2026-05-07 23:04 | -22.91034 | -43.16538 | 19 ft | 17 kts | 354° |
| 2026-05-07 23:04 | -22.90926 | -43.16547 | 19 ft | 0 kts | 342° |
| 2026-05-07 23:05 | -22.90919 | -43.16562 | 20 ft | 6 kts | 289° |
| 2026-05-07 23:05 | -22.90918 | -43.16596 | 15 ft | 0 kts | 266° |